Accueil
METAR-TAF:

METAR-TAF

Aéroports :

Lanvéoc, France

Base aérienne Lanvéoc-Poulmic

latitude: 48-17N, longitude: 004-26W, altitude: 87 m

Observation

Le bulletin a été fait il y a 40 minutes, à 01:00 UTC
Vent 7 kt de sud-ouest
Température 15°C
Humidité 88%
Pression 1021 hPa
Visibilité 10 km ou plus
pas de nuages en-dessous de 1500 mètres et pas de cumulonimbus.

METAR: LFRL 240100Z AUTO 22007KT CAVOK 15/13 Q1021

Heure: 03:40 (01:40 UTC)

Prévision

Le bulletin a été fait il y a 11 heures et 40 minutes, à 14:00 UTC
Prévision valable du 23 à 15 UTC au 23 à 24 UTC
Vent 14 kt de ouest
Visibilité 10 km ou plus
Nuages épars à une hauteur de 1800 ft
Nuages épars à une hauteur de 2400 ft
Temporairement
du 23 à 22 UTC au 23 à 24 UTC
Nuages fragmentés à une hauteur de 1100 ft

TAF: LFRL 231400Z 2315/2324 26014KT 9999 SCT018 SCT024 TEMPO 2322/2324 BKN011

Observations et prévisions météorologiques de plus de 4000 aéroports (messages METAR et TAF).

Les stations disponibles sont représentées par des disques jaunes et rouges sur la carte.

Passer la souris dessus pour voir le nom de la station.

Cliquer dessus pour voir les observations et prévisions météorologiques.

Pour changer de carte: cliquez sur les boutons verts avec une croix noire pour zoomer, sur le bouton vert avec un tiret pour effectuer un zoom arrière, ou sur les flèches vertes pour les cartes adjacentes.


METAR-TAF: